Time;durP1;ratioP1;P1;durP2;ratioP2;P2;SDS_P1;SDS_P2;PMS_P1;PMS_P2;Temp;Humidity;BMP_temperature;BMP_pressure;BME280_temperature;BME280_humidity;BME280_pressure;Samples;Min_cycle;Max_cycle;Signal;HPM_P1;HPM_P2
2023/04/02 00:00:02;;;;;;;1.93;1.57;;;5.20;99.90;;;;;;5024504;28;20422;-55
2023/04/02 00:02:32;;;;;;;2.10;1.90;;;5.20;99.90;;;;;;5018520;28;20425;-56
2023/04/02 00:05:17;;;;;;;1.70;1.60;;;5.20;99.90;;;;;;5024759;28;20434;-54
2023/04/02 00:07:47;;;;;;;3.60;1.97;;;5.20;99.90;;;;;;5027062;28;20533;-56
2023/04/02 00:10:33;;;;;;;3.13;1.90;;;5.20;99.90;;;;;;5020408;28;20836;-56
2023/04/02 00:13:10;;;;;;;2.13;2.00;;;5.20;99.90;;;;;;5024367;28;20848;-55
2023/04/02 00:15:42;;;;;;;2.90;2.30;;;5.20;99.90;;;;;;5028285;28;20449;-54
2023/04/02 00:18:15;;;;;;;3.87;1.90;;;5.20;99.90;;;;;;5026405;28;20492;-54
2023/04/02 00:20:43;;;;;;;2.30;2.00;;;5.20;99.90;;;;;;5025624;28;20438;-56
2023/04/02 00:23:13;;;;;;;1.90;1.80;;;5.20;99.90;;;;;;5030973;28;20505;-57
2023/04/02 00:25:44;;;;;;;1.90;1.80;;;5.30;99.90;;;;;;5025459;28;20438;-58
2023/04/02 00:28:16;;;;;;;2.50;2.30;;;5.30;99.90;;;;;;5029534;28;20469;-55
2023/04/02 00:30:57;;;;;;;1.90;1.80;;;5.30;99.90;;;;;;5028930;28;20526;-56
2023/04/02 00:33:26;;;;;;;2.90;2.60;;;5.30;99.90;;;;;;5027196;28;20442;-56
2023/04/02 00:35:53;;;;;;;3.37;2.07;;;5.20;99.90;;;;;;5025860;28;20851;-54
2023/04/02 00:38:26;;;;;;;2.63;2.33;;;5.30;99.90;;;;;;5022982;28;20533;-54
2023/04/02 00:40:55;;;;;;;5.53;2.57;;;5.30;99.90;;;;;;5028585;28;20430;-57
2023/04/02 00:43:23;;;;;;;2.60;2.40;;;5.30;99.90;;;;;;5031975;28;20903;-58
2023/04/02 00:45:54;;;;;;;3.00;2.70;;;5.30;99.90;;;;;;5025551;28;20438;-55
2023/04/02 00:48:25;;;;;;;2.77;2.20;;;5.30;99.90;;;;;;5024634;28;20470;-57
2023/04/02 00:50:53;;;;;;;4.73;2.30;;;5.30;99.90;;;;;;5029955;28;20421;-54
2023/04/02 00:53:28;;;;;;;3.63;1.90;;;5.30;99.90;;;;;;5030834;28;21021;-54
2023/04/02 00:55:57;;;;;;;3.30;2.23;;;5.30;99.90;;;;;;5029266;28;20430;-58
2023/04/02 00:58:30;;;;;;;2.50;2.30;;;5.30;99.90;;;;;;5030586;28;20466;-55
2023/04/02 01:00:58;;;;;;;3.00;2.27;;;5.30;99.90;;;;;;5028449;28;20510;-57
2023/04/02 01:03:34;;;;;;;4.70;3.60;;;5.30;99.90;;;;;;5027716;28;20469;-54
2023/04/02 01:06:14;;;;;;;3.10;2.80;;;5.30;99.90;;;;;;5024783;28;20434;-59
2023/04/02 01:09:20;;;;;;;2.53;2.33;;;5.30;99.90;;;;;;5030768;28;20576;-54
2023/04/02 01:12:00;;;;;;;2.50;2.30;;;5.30;99.90;;;;;;5026208;28;20418;-54
2023/04/02 01:14:35;;;;;;;4.17;2.40;;;5.30;99.90;;;;;;5030244;28;20464;-54
2023/04/02 01:17:17;;;;;;;4.47;2.20;;;5.30;99.90;;;;;;5025386;28;20445;-57
2023/04/02 01:20:21;;;;;;;2.50;2.30;;;5.30;99.90;;;;;;5026996;28;20438;-56
2023/04/02 01:22:56;;;;;;;4.30;3.10;;;5.30;99.90;;;;;;5043176;28;20466;-55
2023/04/02 01:25:50;;;;;;;2.20;1.77;;;5.30;99.90;;;;;;5026365;28;20441;-57
2023/04/02 01:28:34;;;;;;;4.40;2.63;;;5.30;99.90;;;;;;5028868;28;20889;-55
2023/04/02 01:31:01;;;;;;;4.90;2.20;;;5.30;99.90;;;;;;5028656;28;20426;-56
2023/04/02 01:33:33;;;;;;;4.10;2.00;;;5.30;99.90;;;;;;5030059;28;20406;-54
2023/04/02 01:36:20;;;;;;;2.37;2.17;;;5.30;99.90;;;;;;5027581;28;20426;-55
2023/04/02 01:39:01;;;;;;;2.50;2.30;;;5.30;99.90;;;;;;5027201;28;20453;-57
2023/04/02 01:41:42;;;;;;;2.30;2.20;;;5.30;99.90;;;;;;5029679;28;20495;-56
2023/04/02 01:44:16;;;;;;;2.00;1.87;;;5.30;99.90;;;;;;5034775;28;20422;-58
2023/04/02 01:46:43;;;;;;;3.90;1.60;;;5.30;99.90;;;;;;5025860;28;20459;-55
2023/04/02 01:49:16;;;;;;;2.17;1.97;;;5.30;99.90;;;;;;5025341;28;20564;-56
2023/04/02 01:51:45;;;;;;;3.93;2.20;;;5.30;99.90;;;;;;5022639;28;20422;-56
2023/04/02 01:54:12;;;;;;;3.77;2.00;;;5.20;99.90;;;;;;5025783;28;20422;-56
2023/04/02 01:56:40;;;;;;;3.73;1.67;;;5.20;99.90;;;;;;5027678;28;20453;-56
2023/04/02 01:59:07;;;;;;;2.37;2.10;;;5.20;99.90;;;;;;5030327;28;20461;-55
2023/04/02 02:01:41;;;;;;;2.00;1.90;;;5.20;99.90;;;;;;5023254;28;20431;-58
2023/04/02 02:04:12;;;;;;;1.97;1.83;;;5.20;99.90;;;;;;5029203;28;20413;-55
2023/04/02 02:06:38;;;;;;;2.10;2.00;;;5.20;99.90;;;;;;5027820;28;20835;-56
2023/04/02 02:09:06;;;;;;;2.33;1.83;;;5.20;99.90;;;;;;5026563;28;20427;-55
2023/04/02 02:11:35;;;;;;;3.07;2.30;;;5.20;99.90;;;;;;5025806;28;20176;-57
2023/04/02 02:14:10;;;;;;;2.10;1.67;;;5.20;99.90;;;;;;5029378;28;20414;-55
2023/04/02 02:16:40;;;;;;;2.90;2.00;;;5.20;99.90;;;;;;5027983;28;20465;-55
2023/04/02 02:19:21;;;;;;;3.27;2.03;;;5.20;99.90;;;;;;5028113;28;20425;-55
2023/04/02 02:21:55;;;;;;;1.90;1.80;;;5.20;99.90;;;;;;5027404;28;20465;-56
2023/04/02 02:24:31;;;;;;;3.80;2.17;;;5.20;99.90;;;;;;5027219;28;20430;-54
2023/04/02 02:27:36;;;;;;;3.03;2.03;;;5.20;99.90;;;;;;5028800;28;20454;-56
2023/04/02 02:30:23;;;;;;;1.83;1.73;;;5.20;99.90;;;;;;5028829;28;20426;-55
2023/04/02 02:32:54;;;;;;;4.73;2.20;;;5.20;99.90;;;;;;5025305;28;20430;-59
2023/04/02 02:36:01;;;;;;;2.90;1.67;;;5.20;99.90;;;;;;5027941;28;20512;-57
2023/04/02 02:38:42;;;;;;;2.87;1.70;;;5.20;99.90;;;;;;5029657;28;20437;-55
2023/04/02 02:41:32;;;;;;;2.37;2.20;;;5.20;99.90;;;;;;5024670;28;20472;-56
2023/04/02 02:44:16;;;;;;;1.90;1.80;;;5.20;99.90;;;;;;5019448;28;21009;-59
2023/04/02 02:47:07;;;;;;;2.23;2.10;;;5.20;99.90;;;;;;5030038;28;20528;-58
2023/04/02 02:49:36;;;;;;;2.10;1.90;;;5.20;99.90;;;;;;5025650;28;20434;-58
2023/04/02 02:52:07;;;;;;;2.47;2.27;;;5.20;99.90;;;;;;5028739;28;20476;-55
2023/04/02 02:54:40;;;;;;;2.43;2.30;;;5.20;99.90;;;;;;5024489;28;20430;-55
2023/04/02 02:57:11;;;;;;;3.70;1.77;;;5.30;99.90;;;;;;5028320;28;20529;-57
2023/04/02 02:59:37;;;;;;;2.93;1.77;;;5.20;99.90;;;;;;5028625;28;20954;-55
2023/04/02 03:02:05;;;;;;;1.93;1.83;;;5.30;99.90;;;;;;5026370;28;20418;-57
2023/04/02 03:04:34;;;;;;;3.50;2.53;;;5.30;99.90;;;;;;5023169;28;20566;-58
2023/04/02 03:07:02;;;;;;;2.37;2.17;;;5.30;99.90;;;;;;5025435;28;20462;-57
2023/04/02 03:09:35;;;;;;;2.00;1.90;;;5.30;99.90;;;;;;5024595;28;20450;-57
2023/04/02 03:12:27;;;;;;;4.03;2.00;;;5.30;99.90;;;;;;5023640;28;20871;-56
2023/04/02 03:14:56;;;;;;;3.13;1.87;;;5.30;99.90;;;;;;5019206;28;20438;-54
2023/04/02 03:17:48;;;;;;;2.37;2.17;;;5.30;99.90;;;;;;5027475;28;20528;-57
2023/04/02 03:20:21;;;;;;;2.63;2.43;;;5.30;99.90;;;;;;5025097;28;20418;-58
2023/04/02 03:23:06;;;;;;;2.47;2.27;;;5.30;99.90;;;;;;5026994;28;20781;-58
2023/04/02 03:25:41;;;;;;;2.93;2.47;;;5.30;99.90;;;;;;5025174;28;20435;-56
2023/04/02 03:28:13;;;;;;;2.47;2.27;;;5.30;99.90;;;;;;5021006;28;20967;-55
2023/04/02 03:30:45;;;;;;;3.00;2.80;;;5.20;99.90;;;;;;5026898;28;20512;-56
2023/04/02 03:33:28;;;;;;;2.27;2.10;;;5.30;99.90;;;;;;5029186;28;20433;-55
2023/04/02 03:36:17;;;;;;;2.60;1.97;;;5.20;99.90;;;;;;5019939;28;20419;-59
2023/04/02 03:38:54;;;;;;;2.60;2.40;;;5.30;99.90;;;;;;5026793;28;20445;-57
2023/04/02 03:41:32;;;;;;;4.30;2.50;;;5.30;99.90;;;;;;5025822;28;20430;-53
2023/04/02 03:44:02;;;;;;;3.03;2.07;;;5.30;99.90;;;;;;5019052;28;20433;-56
2023/04/02 03:46:33;;;;;;;3.53;2.17;;;5.30;99.90;;;;;;5027422;28;20406;-56
2023/04/02 03:49:18;;;;;;;2.53;2.33;;;5.30;99.90;;;;;;5027185;28;20426;-55
2023/04/02 03:52:05;;;;;;;2.70;2.37;;;5.30;99.90;;;;;;5027310;28;20458;-54
2023/04/02 03:54:31;;;;;;;3.07;2.10;;;5.30;99.90;;;;;;5029907;28;20422;-55
2023/04/02 03:56:58;;;;;;;3.37;1.97;;;5.40;99.90;;;;;;5029166;28;20475;-54
2023/04/02 03:59:41;;;;;;;3.10;2.30;;;5.30;99.90;;;;;;5026874;28;20413;-57
2023/04/02 04:02:25;;;;;;;6.50;2.40;;;5.30;99.90;;;;;;5024694;28;20426;-56
2023/04/02 04:04:53;;;;;;;4.57;3.47;;;5.30;99.90;;;;;;5030301;28;20465;-54
2023/04/02 04:07:28;;;;;;;3.53;3.23;;;5.30;99.90;;;;;;5028874;28;21047;-54
2023/04/02 04:09:55;;;;;;;5.60;3.10;;;5.30;99.90;;;;;;5025934;28;20454;-56
2023/04/02 04:12:34;;;;;;;14.13;3.63;;;5.20;99.90;;;;;;5029327;28;20453;-56
2023/04/02 04:15:14;;;;;;;5.43;3.20;;;5.20;99.90;;;;;;5026526;28;20958;-57
2023/04/02 04:18:04;;;;;;;6.00;2.63;;;5.20;99.90;;;;;;5019491;28;20978;-56
2023/04/02 04:20:39;;;;;;;3.10;2.80;;;5.20;99.90;;;;;;5028542;28;20422;-57
2023/04/02 04:23:16;;;;;;;3.03;2.67;;;5.20;99.90;;;;;;5031036;28;20928;-55
2023/04/02 04:25:42;;;;;;;3.80;3.20;;;5.20;99.90;;;;;;5023712;28;20462;-54
2023/04/02 04:28:18;;;;;;;3.70;3.30;;;5.20;99.90;;;;;;5026383;28;20485;-58
2023/04/02 04:30:59;;;;;;;3.90;3.20;;;5.20;99.90;;;;;;5029185;28;20918;-55
2023/04/02 04:33:33;;;;;;;3.07;2.33;;;5.20;99.90;;;;;;5031742;28;20476;-58
2023/04/02 04:36:01;;;;;;;6.30;2.70;;;5.20;99.90;;;;;;5028506;28;20425;-58
2023/04/02 04:38:34;;;;;;;5.03;2.80;;;5.20;99.90;;;;;;5031222;28;20954;-55
2023/04/02 04:41:11;;;;;;;3.87;2.93;;;5.20;99.90;;;;;;5022058;28;21136;-55
2023/04/02 04:44:16;;;;;;;4.50;3.37;;;5.20;99.90;;;;;;5025130;28;20837;-56
2023/04/02 04:46:47;;;;;;;3.00;2.60;;;5.20;99.90;;;;;;5025322;28;20441;-54
2023/04/02 04:49:43;;;;;;;3.10;2.80;;;5.20;99.90;;;;;;5022401;28;20503;-58
2023/04/02 04:52:18;;;;;;;5.27;3.37;;;5.20;99.90;;;;;;5016697;28;20422;-57
2023/04/02 04:54:45;;;;;;;3.10;2.73;;;5.20;99.90;;;;;;5029946;28;20418;-55
2023/04/02 04:57:38;;;;;;;6.07;3.30;;;5.30;99.90;;;;;;5026187;28;20446;-54
2023/04/02 05:00:14;;;;;;;5.33;3.63;;;5.20;99.90;;;;;;5021765;28;20438;-56
2023/04/02 05:02:55;;;;;;;7.80;4.53;;;5.20;99.90;;;;;;5030209;28;20410;-56
2023/04/02 05:05:28;;;;;;;4.53;4.00;;;5.20;99.90;;;;;;5027502;28;20461;-55
2023/04/02 05:08:22;;;;;;;4.57;3.70;;;5.20;99.90;;;;;;5027736;28;20485;-57
2023/04/02 05:11:05;;;;;;;6.60;3.67;;;5.20;99.90;;;;;;5021766;28;20512;-56
2023/04/02 05:13:46;;;;;;;4.63;4.07;;;5.20;99.90;;;;;;5031029;28;20403;-55
2023/04/02 05:16:14;;;;;;;4.90;3.90;;;5.30;99.90;;;;;;5026577;28;20450;-55
2023/04/02 05:18:49;;;;;;;4.47;4.03;;;5.20;99.90;;;;;;5029114;28;20449;-55
2023/04/02 05:21:41;;;;;;;7.63;4.67;;;5.30;99.90;;;;;;5027764;28;20509;-55
2023/04/02 05:24:43;;;;;;;4.90;4.40;;;5.30;99.90;;;;;;5018037;28;20485;-58
2023/04/02 05:27:35;;;;;;;6.70;4.80;;;5.30;99.90;;;;;;5028888;28;20496;-56
2023/04/02 05:30:23;;;;;;;6.17;4.10;;;5.30;99.90;;;;;;5024209;28;21128;-55
2023/04/02 05:33:21;;;;;;;5.40;4.20;;;5.30;99.90;;;;;;5017404;28;20419;-56
2023/04/02 05:35:56;;;;;;;6.80;5.10;;;5.40;99.90;;;;;;5027589;28;20545;-58
2023/04/02 05:38:26;;;;;;;4.53;3.97;;;5.40;99.90;;;;;;5030772;28;20927;-54
2023/04/02 05:41:05;;;;;;;3.97;3.30;;;5.40;99.90;;;;;;5029014;28;20454;-55
2023/04/02 05:43:33;;;;;;;6.20;2.97;;;5.40;99.90;;;;;;5023557;28;20438;-56
2023/04/02 05:46:06;;;;;;;2.93;2.73;;;5.50;99.90;;;;;;5030017;28;20409;-55
2023/04/02 05:48:39;;;;;;;3.10;2.67;;;5.50;99.90;;;;;;5029263;28;20451;-57
2023/04/02 05:51:13;;;;;;;3.20;2.90;;;5.50;99.90;;;;;;5025129;28;20430;-54
2023/04/02 05:53:43;;;;;;;4.60;2.90;;;5.50;99.90;;;;;;5027169;28;20415;-55
2023/04/02 05:56:26;;;;;;;4.53;3.53;;;5.50;99.90;;;;;;5024060;28;20662;-55
2023/04/02 05:59:03;;;;;;;5.57;4.50;;;5.50;99.90;;;;;;5029568;28;20427;-56
2023/04/02 06:01:28;;;;;;;5.43;3.87;;;5.60;99.90;;;;;;5029153;28;20410;-54
2023/04/02 06:04:36;;;;;;;5.20;4.30;;;5.60;99.90;;;;;;5021454;28;21065;-54
2023/04/02 06:07:05;;;;;;;6.07;3.90;;;5.60;99.90;;;;;;5025908;28;20707;-58
2023/04/02 06:09:41;;;;;;;4.17;3.37;;;5.60;99.90;;;;;;5028875;28;20477;-54
2023/04/02 06:12:27;;;;;;;5.03;3.67;;;5.60;99.90;;;;;;5025160;28;20422;-58
2023/04/02 06:14:52;;;;;;;6.20;4.07;;;5.70;99.90;;;;;;5028299;28;20414;-54
2023/04/02 06:17:20;;;;;;;3.87;3.57;;;5.70;99.90;;;;;;5029578;28;20484;-56
2023/04/02 06:19:46;;;;;;;7.60;4.60;;;5.70;99.90;;;;;;5028973;28;20178;-55
2023/04/02 06:22:38;;;;;;;5.37;4.07;;;5.70;99.90;;;;;;5023354;28;20845;-56
2023/04/02 06:25:47;;;;;;;5.87;3.67;;;5.80;99.90;;;;;;5023201;28;20414;-57
2023/04/02 06:28:22;;;;;;;5.63;3.90;;;5.90;99.90;;;;;;5025776;28;20473;-58
2023/04/02 06:30:50;;;;;;;6.40;4.70;;;5.90;99.90;;;;;;5026111;28;20855;-55
2023/04/02 06:33:16;;;;;;;6.93;4.60;;;5.90;99.90;;;;;;5024702;28;20431;-56
2023/04/02 06:35:45;;;;;;;6.43;4.30;;;6.00;99.90;;;;;;5022586;28;20988;-54
2023/04/02 06:38:20;;;;;;;5.67;5.07;;;6.10;99.90;;;;;;5022739;28;20454;-55
2023/04/02 06:41:03;;;;;;;5.20;4.10;;;6.20;99.90;;;;;;5025300;28;20425;-55
2023/04/02 06:43:38;;;;;;;9.63;4.50;;;6.30;99.90;;;;;;5026888;28;20425;-55
2023/04/02 06:46:25;;;;;;;5.03;4.13;;;6.30;99.90;;;;;;5015093;28;20473;-57
2023/04/02 06:48:55;;;;;;;7.97;3.50;;;6.40;99.90;;;;;;5026102;28;20468;-60
2023/04/02 06:51:23;;;;;;;4.10;3.27;;;6.40;99.90;;;;;;5022908;28;20498;-55
2023/04/02 06:53:50;;;;;;;4.63;3.23;;;6.40;99.90;;;;;;5024199;28;20426;-55
2023/04/02 06:56:39;;;;;;;3.20;2.90;;;6.40;99.90;;;;;;5027168;28;20423;-54
2023/04/02 06:59:06;;;;;;;3.53;3.17;;;6.50;99.90;;;;;;5020918;28;20406;-55
2023/04/02 07:01:39;;;;;;;4.70;2.90;;;6.50;99.90;;;;;;5014801;28;20463;-55
2023/04/02 07:04:05;;;;;;;3.37;3.07;;;6.50;99.90;;;;;;5021073;28;20816;-58
2023/04/02 07:06:30;;;;;;;3.23;3.03;;;6.60;99.90;;;;;;5025381;28;20423;-57
2023/04/02 07:08:56;;;;;;;3.40;3.10;;;6.60;99.90;;;;;;5028166;28;20426;-55
2023/04/02 07:11:22;;;;;;;3.70;3.37;;;6.60;99.90;;;;;;5024665;28;20198;-54
2023/04/02 07:13:48;;;;;;;3.40;2.53;;;6.60;99.90;;;;;;5027788;28;20187;-55
2023/04/02 07:16:17;;;;;;;5.10;3.03;;;6.70;99.90;;;;;;5025961;28;20204;-56
2023/04/02 07:18:43;;;;;;;4.40;2.80;;;6.70;99.90;;;;;;5026712;28;20466;-57
2023/04/02 07:21:09;;;;;;;4.60;2.53;;;6.70;99.90;;;;;;5028205;28;20437;-58
2023/04/02 07:23:35;;;;;;;2.97;2.67;;;6.80;99.90;;;;;;5025765;28;20191;-54
2023/04/02 07:26:01;;;;;;;6.20;2.10;;;6.80;99.90;;;;;;5030421;28;20180;-55
2023/04/02 07:28:27;;;;;;;2.10;1.70;;;6.80;99.90;;;;;;5030783;28;20212;-54
2023/04/02 07:30:53;;;;;;;4.27;2.73;;;6.90;99.90;;;;;;5023143;28;20465;-55
2023/04/02 07:33:22;;;;;;;2.30;2.07;;;6.90;99.90;;;;;;5031247;28;20269;-54
2023/04/02 07:35:49;;;;;;;2.43;2.23;;;6.90;99.90;;;;;;5032260;28;20589;-58
2023/04/02 07:38:15;;;;;;;2.10;2.00;;;7.00;99.90;;;;;;5027238;28;20899;-56
2023/04/02 07:40:41;;;;;;;2.80;1.90;;;7.00;99.90;;;;;;5027905;28;20474;-53
2023/04/02 07:43:06;;;;;;;3.93;2.47;;;7.00;99.90;;;;;;5031946;28;20203;-56
2023/04/02 07:45:32;;;;;;;1.90;1.80;;;7.10;99.90;;;;;;5028753;28;20391;-58
2023/04/02 07:48:04;;;;;;;1.70;1.60;;;7.10;99.90;;;;;;5025686;28;20346;-56
2023/04/02 07:50:30;;;;;;;3.50;1.60;;;7.20;99.90;;;;;;5029328;28;20220;-55
2023/04/02 07:52:55;;;;;;;1.83;1.70;;;7.20;99.90;;;;;;5029367;28;20465;-55
2023/04/02 07:55:21;;;;;;;2.03;1.67;;;7.30;99.90;;;;;;5029383;28;20555;-55
2023/04/02 07:57:49;;;;;;;1.10;1.10;;;7.40;99.90;;;;;;5031450;28;20622;-56
2023/04/02 08:00:16;;;;;;;1.50;1.40;;;7.40;99.90;;;;;;5025651;28;20176;-57
2023/04/02 08:02:41;;;;;;;1.60;1.50;;;7.40;99.90;;;;;;5008709;28;20442;-55
2023/04/02 08:05:08;;;;;;;5.40;2.63;;;7.40;99.90;;;;;;5022973;28;20445;-56
2023/04/02 08:07:34;;;;;;;1.37;1.27;;;7.40;99.90;;;;;;5017435;28;20212;-54
2023/04/02 08:10:00;;;;;;;1.40;1.37;;;7.50;99.90;;;;;;5017634;28;20434;-55
2023/04/02 08:12:25;;;;;;;1.50;1.40;;;7.50;99.90;;;;;;5018062;28;20476;-52
2023/04/02 08:14:51;;;;;;;1.30;1.30;;;7.50;99.90;;;;;;5019692;28;20434;-55
2023/04/02 08:17:17;;;;;;;2.20;1.50;;;7.50;99.90;;;;;;5020311;28;20227;-53
2023/04/02 08:19:43;;;;;;;1.37;1.27;;;7.50;99.90;;;;;;5021491;28;20180;-53
2023/04/02 08:22:09;;;;;;;1.70;1.60;;;7.60;99.90;;;;;;5013354;28;20222;-51
2023/04/02 08:24:35;;;;;;;1.20;1.20;;;7.60;99.90;;;;;;5017277;28;20492;-52
2023/04/02 08:27:01;;;;;;;1.67;1.40;;;7.60;99.90;;;;;;5018459;28;20489;-52
2023/04/02 08:29:31;;;;;;;1.37;1.30;;;7.60;99.90;;;;;;5020751;28;20175;-51
2023/04/02 08:31:57;;;;;;;1.60;1.33;;;7.60;99.90;;;;;;5019359;28;20803;-52
2023/04/02 08:34:23;;;;;;;5.13;2.20;;;7.60;99.90;;;;;;5024296;28;20871;-58
2023/04/02 08:36:48;;;;;;;1.63;1.27;;;7.60;99.90;;;;;;5021219;28;20541;-56
2023/04/02 08:39:14;;;;;;;1.40;1.30;;;7.70;99.90;;;;;;5020619;28;20261;-58
2023/04/02 08:42:17;;;;;;;1.50;1.40;;;7.70;99.90;;;;;;5018901;28;20188;-56
2023/04/02 08:45:05;;;;;;;1.23;1.20;;;7.80;99.90;;;;;;5019467;28;20241;-57
2023/04/02 08:47:36;;;;;;;1.57;1.47;;;7.80;99.90;;;;;;5022344;28;20543;-55
2023/04/02 08:50:11;;;;;;;1.00;1.00;;;7.90;99.90;;;;;;5018810;28;20438;-54
2023/04/02 08:52:37;;;;;;;1.73;1.50;;;7.90;99.90;;;;;;5023932;28;20489;-56
2023/04/02 08:55:32;;;;;;;1.67;1.30;;;8.10;99.90;;;;;;5021574;28;20433;-53
2023/04/02 08:58:15;;;;;;;1.30;1.20;;;8.10;99.90;;;;;;5017077;28;20785;-53
2023/04/02 09:00:44;;;;;;;1.23;1.10;;;8.30;99.90;;;;;;5012087;28;20496;-55
2023/04/02 09:03:12;;;;;;;1.47;1.40;;;8.40;99.90;;;;;;5018689;28;20581;-53
2023/04/02 09:05:41;;;;;;;1.40;1.30;;;8.50;99.90;;;;;;5021132;28;20503;-55
2023/04/02 09:08:20;;;;;;;1.60;1.50;;;8.60;99.90;;;;;;5016251;28;21824;-52
2023/04/02 09:11:11;;;;;;;1.10;1.07;;;8.70;99.90;;;;;;5014752;28;20462;-55
2023/04/02 09:13:43;;;;;;;2.10;1.80;;;8.80;99.90;;;;;;5021333;28;20446;-55
2023/04/02 09:16:10;;;;;;;1.40;1.30;;;8.80;99.90;;;;;;5018519;28;20830;-55
2023/04/02 09:18:37;;;;;;;1.10;1.10;;;8.80;99.90;;;;;;5018793;28;20523;-57
2023/04/02 09:21:27;;;;;;;1.60;1.50;;;8.80;99.90;;;;;;5019643;28;20974;-56
2023/04/02 09:23:53;;;;;;;1.10;1.00;;;8.80;99.90;;;;;;5013629;28;20529;-58
2023/04/02 09:26:36;;;;;;;1.10;1.00;;;8.80;99.90;;;;;;5014307;28;20783;-55
2023/04/02 09:29:24;;;;;;;1.60;1.30;;;8.80;99.90;;;;;;5016351;28;20434;-56
2023/04/02 09:32:05;;;;;;;1.10;1.00;;;8.90;99.90;;;;;;5015020;28;20481;-58
2023/04/02 09:34:33;;;;;;;1.07;1.07;;;8.80;99.90;;;;;;5012853;28;20959;-55
2023/04/02 09:37:17;;;;;;;1.07;1.07;;;8.80;99.90;;;;;;5014427;28;20450;-57
2023/04/02 09:39:42;;;;;;;1.10;1.00;;;8.80;99.90;;;;;;5012978;28;20445;-57
2023/04/02 09:42:28;;;;;;;1.77;1.10;;;8.80;99.90;;;;;;5018338;28;20435;-56
2023/04/02 09:45:12;;;;;;;1.27;1.20;;;8.80;99.90;;;;;;5021081;28;21060;-55
2023/04/02 09:47:39;;;;;;;1.00;1.00;;;8.80;99.90;;;;;;5015563;28;20467;-54
2023/04/02 09:50:20;;;;;;;1.20;1.10;;;8.90;99.90;;;;;;5018065;28;20977;-57
2023/04/02 09:52:46;;;;;;;1.87;1.20;;;8.90;99.90;;;;;;5019573;28;20469;-56
2023/04/02 09:55:15;;;;;;;1.47;1.37;;;8.80;99.90;;;;;;5017063;28;20823;-55
2023/04/02 09:57:41;;;;;;;3.77;1.20;;;8.80;99.90;;;;;;5017547;28;20465;-57
2023/04/02 10:00:18;;;;;;;1.40;1.30;;;8.70;99.90;;;;;;5014885;28;20426;-56
2023/04/02 10:02:45;;;;;;;1.30;1.20;;;8.70;99.90;;;;;;5013263;28;20426;-55
2023/04/02 10:05:22;;;;;;;1.20;1.10;;;8.70;99.90;;;;;;5017547;28;20437;-56
2023/04/02 10:07:52;;;;;;;1.43;1.33;;;8.60;99.90;;;;;;5011294;28;20472;-53
2023/04/02 10:10:30;;;;;;;0.90;0.90;;;8.60;99.90;;;;;;5015828;28;21165;-55
2023/04/02 10:13:03;;;;;;;1.23;1.13;;;8.60;99.90;;;;;;5017151;28;20438;-55
2023/04/02 10:15:36;;;;;;;1.20;1.10;;;8.60;99.90;;;;;;5020766;28;20809;-56
2023/04/02 10:18:27;;;;;;;1.43;1.33;;;8.60;99.90;;;;;;5020338;28;20489;-55
2023/04/02 10:20:55;;;;;;;3.00;1.23;;;8.60;99.90;;;;;;5015626;28;20465;-58
2023/04/02 10:23:25;;;;;;;1.50;1.40;;;8.60;99.90;;;;;;5016663;28;20438;-57
2023/04/02 10:26:19;;;;;;;1.60;1.50;;;8.60;99.90;;;;;;5020240;28;21062;-56
2023/04/02 10:29:03;;;;;;;1.20;1.10;;;8.60;99.90;;;;;;5022243;28;20474;-56
2023/04/02 10:31:54;;;;;;;2.63;1.40;;;8.70;99.90;;;;;;5011887;28;20514;-56
2023/04/02 10:34:30;;;;;;;1.43;1.07;;;8.70;99.90;;;;;;5011076;28;20440;-55
2023/04/02 10:37:04;;;;;;;1.20;1.10;;;8.80;99.90;;;;;;5009697;28;20462;-54
2023/04/02 10:39:43;;;;;;;1.00;1.00;;;8.80;99.90;;;;;;5020323;28;20429;-56
2023/04/02 10:42:28;;;;;;;0.80;0.80;;;8.80;99.90;;;;;;5020224;28;20781;-54
2023/04/02 10:45:12;;;;;;;1.27;1.00;;;8.90;99.90;;;;;;5021153;28;20418;-54
2023/04/02 10:47:46;;;;;;;1.03;1.03;;;8.90;99.90;;;;;;5021243;28;21048;-56
2023/04/02 10:50:21;;;;;;;1.40;1.30;;;8.90;99.90;;;;;;5011800;28;20426;-56
2023/04/02 10:53:15;;;;;;;1.00;1.00;;;8.90;99.90;;;;;;5020853;28;20433;-55
2023/04/02 10:55:49;;;;;;;1.93;0.93;;;8.90;99.90;;;;;;5020404;28;20740;-53
2023/04/02 10:58:25;;;;;;;1.37;1.10;;;9.00;99.90;;;;;;5013826;28;20462;-55
2023/04/02 11:00:55;;;;;;;1.30;1.20;;;9.00;99.90;;;;;;5014366;28;20434;-55
2023/04/02 11:03:54;;;;;;;1.80;1.60;;;9.00;99.90;;;;;;5018571;28;20513;-55
2023/04/02 11:06:24;;;;;;;1.13;1.13;;;9.00;99.90;;;;;;5025205;28;20431;-55
2023/04/02 11:08:54;;;;;;;1.10;1.00;;;9.00;99.90;;;;;;5017577;28;21151;-53
2023/04/02 11:11:41;;;;;;;1.40;1.30;;;9.00;99.90;;;;;;5022704;28;21856;-57
2023/04/02 11:14:14;;;;;;;1.03;1.00;;;9.10;99.90;;;;;;5019693;28;20483;-54
2023/04/02 11:16:41;;;;;;;4.07;2.40;;;9.10;99.90;;;;;;5016114;28;20935;-55
2023/04/02 11:19:15;;;;;;;2.40;1.63;;;9.10;99.90;;;;;;5018509;28;20924;-53
2023/04/02 11:21:54;;;;;;;3.17;2.03;;;9.10;99.90;;;;;;5012053;28;20429;-54
2023/04/02 11:24:30;;;;;;;1.67;1.57;;;9.10;99.90;;;;;;5018822;28;20504;-54
2023/04/02 11:27:11;;;;;;;1.10;1.10;;;9.20;99.90;;;;;;5021111;28;20425;-54
2023/04/02 11:29:57;;;;;;;1.37;1.20;;;9.20;99.90;;;;;;5019174;28;20788;-53
2023/04/02 11:32:24;;;;;;;2.50;1.30;;;9.30;99.90;;;;;;5011816;28;20423;-54
2023/04/02 11:34:55;;;;;;;3.77;1.10;;;9.30;99.90;;;;;;5015340;28;20923;-54
2023/04/02 11:37:33;;;;;;;2.10;1.17;;;9.30;99.90;;;;;;5015333;28;20520;-56
2023/04/02 11:40:14;;;;;;;1.60;0.97;;;9.40;99.90;;;;;;5017905;28;20433;-56
2023/04/02 11:42:47;;;;;;;1.03;1.03;;;9.40;99.90;;;;;;5015837;28;20435;-52
2023/04/02 11:45:22;;;;;;;1.17;1.07;;;9.50;99.90;;;;;;5018586;28;21032;-58
2023/04/02 11:48:04;;;;;;;1.27;1.20;;;9.60;99.90;;;;;;5019090;28;20461;-57
2023/04/02 11:50:39;;;;;;;1.47;1.37;;;9.70;99.90;;;;;;5019623;28;20504;-53
2023/04/02 11:53:34;;;;;;;19.03;7.43;;;9.80;99.90;;;;;;5011597;28;20446;-54
2023/04/02 11:56:20;;;;;;;1.10;1.10;;;9.90;99.90;;;;;;5018303;28;20947;-53
2023/04/02 11:59:07;;;;;;;1.63;1.30;;;10.00;99.90;;;;;;5013242;28;20423;-57
2023/04/02 12:02:20;;;;;;;6.27;3.00;;;10.10;99.90;;;;;;5015888;28;20442;-54
2023/04/02 12:05:06;;;;;;;5.43;1.77;;;10.30;99.90;;;;;;5016418;28;20813;-54
2023/04/02 12:07:54;;;;;;;1.37;1.20;;;10.50;99.90;;;;;;5019744;28;20465;-60
2023/04/02 12:10:33;;;;;;;1.00;1.00;;;10.60;99.90;;;;;;5004551;28;20828;-56
2023/04/02 12:12:58;;;;;;;2.40;1.37;;;10.80;99.90;;;;;;5019870;28;20915;-56
2023/04/02 12:15:36;;;;;;;1.47;1.00;;;10.90;99.50;;;;;;5021510;28;20419;-59
2023/04/02 12:18:13;;;;;;;2.43;1.90;;;11.00;97.60;;;;;;5018070;28;20207;-57
2023/04/02 12:20:39;;;;;;;1.80;1.20;;;11.10;97.30;;;;;;5018979;28;20582;-57
2023/04/02 12:23:05;;;;;;;1.30;1.20;;;11.30;97.30;;;;;;5023749;28;21020;-56
2023/04/02 12:25:38;;;;;;;0.90;0.90;;;11.50;96.00;;;;;;5019442;28;20176;-54
2023/04/02 12:28:18;;;;;;;1.40;1.30;;;11.80;92.20;;;;;;5017737;28;20450;-55
2023/04/02 12:30:47;;;;;;;1.13;1.10;;;12.10;92.20;;;;;;5023488;28;20528;-57
2023/04/02 12:33:32;;;;;;;1.03;1.03;;;12.30;88.40;;;;;;5021846;28;20427;-54
2023/04/02 12:36:00;;;;;;;1.33;0.90;;;12.60;87.20;;;;;;5019784;28;20846;-54
2023/04/02 12:38:31;;;;;;;0.90;0.90;;;12.70;78.50;;;;;;5018697;28;20505;-51
2023/04/02 12:41:17;;;;;;;3.73;1.00;;;12.80;76.50;;;;;;5017998;28;20887;-53
2023/04/02 12:43:43;;;;;;;0.83;0.83;;;12.90;76.10;;;;;;5012602;28;21483;-55
2023/04/02 12:46:13;;;;;;;2.03;0.83;;;13.10;76.80;;;;;;5018945;28;20793;-52
2023/04/02 12:48:39;;;;;;;1.17;0.80;;;13.40;77.70;;;;;;5016190;28;20258;-53
2023/04/02 12:51:05;;;;;;;0.80;0.80;;;13.60;70.70;;;;;;5021984;28;20937;-54
2023/04/02 12:53:35;;;;;;;0.93;0.93;;;13.50;66.20;;;;;;5019016;28;20488;-57
2023/04/02 12:56:02;;;;;;;1.50;1.10;;;13.50;65.00;;;;;;5016264;28;20214;-56
2023/04/02 12:58:36;;;;;;;0.80;0.80;;;13.40;66.20;;;;;;5021236;28;20450;-55
2023/04/02 13:01:26;;;;;;;0.80;0.80;;;13.30;64.90;;;;;;5020591;28;20422;-57
2023/04/02 13:04:18;;;;;;;0.80;0.80;;;13.20;66.40;;;;;;5018042;28;20837;-56
2023/04/02 13:06:53;;;;;;;0.80;0.77;;;13.20;67.20;;;;;;5017722;28;20522;-55
2023/04/02 13:09:48;;;;;;;2.17;0.90;;;13.30;65.10;;;;;;5024298;28;20439;-55
2023/04/02 13:12:34;;;;;;;0.90;0.90;;;13.20;63.40;;;;;;5018882;28;20451;-55
2023/04/02 13:15:03;;;;;;;1.17;1.00;;;12.90;68.10;;;;;;5019740;28;20927;-55
2023/04/02 13:17:39;;;;;;;1.53;1.17;;;12.60;74.10;;;;;;5020357;28;20454;-57
2023/04/02 13:20:56;;;;;;;1.40;1.23;;;12.20;76.30;;;;;;5021754;28;21048;-57
2023/04/02 13:23:31;;;;;;;1.83;1.17;;;11.80;85.10;;;;;;5021980;28;20460;-53
2023/04/02 13:26:00;;;;;;;0.87;0.87;;;11.50;90.50;;;;;;5025559;28;22413;-53
2023/04/02 13:28:26;;;;;;;0.93;0.90;;;11.20;92.80;;;;;;5016638;28;20523;-57
2023/04/02 13:30:52;;;;;;;1.53;1.00;;;11.00;94.10;;;;;;5022650;28;20442;-54
2023/04/02 13:33:19;;;;;;;0.90;0.90;;;10.90;95.40;;;;;;5019213;28;20434;-56
2023/04/02 13:35:44;;;;;;;0.80;0.80;;;10.70;97.40;;;;;;5023111;28;20195;-55
2023/04/02 13:38:10;;;;;;;1.00;0.97;;;10.50;98.90;;;;;;5020134;28;20451;-55